createdAt,value
2019-05-16T17:17:20.327Z,15.10
2019-05-16T17:20:38.034Z,15.47
2019-05-16T17:23:10.038Z,14.77
2019-05-16T17:25:41.185Z,15.50
2019-05-16T17:28:12.678Z,15.23
2019-05-16T17:30:47.078Z,16.20
2019-05-16T17:33:19.986Z,15.70
2019-05-16T17:35:51.538Z,15.30
2019-05-16T17:38:22.460Z,14.50
2019-05-16T17:40:54.035Z,14.33
2019-05-16T17:43:27.021Z,15.00
2019-05-16T17:45:59.298Z,14.40
2019-05-16T17:48:30.124Z,13.33
2019-05-16T17:51:00.897Z,13.80
2019-05-16T17:53:31.775Z,14.23
2019-05-16T17:56:06.668Z,13.80
2019-05-16T17:58:36.791Z,13.77
2019-05-16T18:01:08.943Z,11.20
2019-05-16T18:03:39.876Z,11.53
2019-05-16T18:06:13.721Z,11.23
2019-05-16T18:08:46.646Z,10.93
2019-05-16T18:11:17.774Z,11.90
2019-05-16T18:13:48.826Z,10.87
2019-05-16T18:16:19.645Z,10.43
2019-05-16T18:18:50.427Z,10.83
2019-05-16T18:21:21.869Z,10.00
2019-05-16T18:23:53.176Z,9.37
2019-05-16T18:26:26.853Z,10.63
2019-05-16T18:28:57.694Z,9.40
2019-05-16T18:31:28.478Z,9.67
2019-05-16T18:33:59.181Z,9.70
2019-05-16T18:36:30.077Z,9.00
2019-05-16T18:39:02.671Z,9.30
2019-05-16T18:41:34.084Z,8.93
2019-05-16T18:44:07.566Z,9.27
2019-05-16T18:46:39.927Z,8.63
2019-05-16T18:49:11.276Z,11.87
2019-05-16T18:51:42.377Z,16.50
2019-05-16T18:54:13.929Z,16.33
2019-05-16T18:56:47.118Z,15.77
2019-05-16T18:59:17.630Z,14.53
2019-05-16T19:01:51.287Z,13.97
2019-05-16T19:04:22.119Z,10.83
2019-05-16T19:06:53.931Z,11.43
2019-05-16T19:09:26.749Z,10.77
2019-05-16T19:11:59.186Z,9.67
2019-05-16T19:14:29.677Z,9.60
2019-05-16T19:17:00.856Z,9.03
2019-05-16T19:19:31.446Z,9.33
2019-05-16T19:22:02.473Z,9.53
2019-05-16T19:24:34.050Z,9.93
2019-05-16T19:27:06.735Z,10.47
2019-05-16T19:29:39.397Z,15.10
2019-05-16T19:32:12.044Z,12.43
2019-05-16T19:34:42.819Z,17.83
2019-05-16T19:37:16.182Z,19.57
2019-05-16T19:39:47.196Z,25.00
2019-05-16T19:42:19.085Z,22.43
2019-05-16T19:44:56.164Z,23.87
2019-05-16T19:47:37.518Z,25.17
2019-05-16T19:50:06.732Z,24.77
2019-05-16T19:52:38.607Z,32.00
2019-05-16T19:55:10.736Z,30.73
2019-05-16T19:57:42.116Z,29.43
2019-05-16T20:00:13.819Z,25.87
2019-05-16T20:02:47.329Z,25.73
2019-05-16T20:05:19.932Z,25.77
2019-05-16T20:07:52.191Z,23.40
2019-05-16T20:10:23.742Z,24.47
2019-05-16T20:12:57.716Z,21.47
2019-05-16T20:15:30.584Z,20.83
2019-05-16T20:18:01.502Z,19.70
2019-05-16T20:20:33.532Z,18.50
2019-05-16T20:23:04.455Z,18.27
2019-05-16T20:25:36.491Z,18.57
2019-05-16T20:28:09.085Z,16.97
2019-05-16T20:30:40.241Z,17.47
2019-05-16T20:33:11.251Z,17.23
2019-05-16T20:35:42.283Z,18.57
2019-05-16T20:38:14.286Z,17.80
2019-05-16T20:40:46.636Z,16.07
2019-05-16T20:43:17.913Z,18.27
2019-05-16T20:45:50.469Z,16.40
2019-05-16T20:48:21.553Z,15.43
2019-05-16T20:50:53.381Z,17.20
2019-05-16T20:53:26.960Z,17.60
2019-05-16T20:55:57.500Z,16.70
2019-05-16T20:58:30.066Z,17.07
2019-05-16T21:01:01.673Z,17.27
2019-05-16T21:03:33.426Z,17.30
2019-05-16T21:06:08.512Z,16.37
2019-05-16T21:08:38.012Z,16.53
2019-05-16T21:11:08.897Z,16.90
2019-05-16T21:13:40.042Z,16.63
2019-05-16T21:16:10.993Z,16.93
2019-05-16T21:18:46.845Z,17.50
2019-05-16T21:21:19.409Z,17.77
2019-05-16T21:23:49.750Z,16.63
2019-05-16T21:26:20.600Z,13.23
2019-05-16T21:28:51.541Z,13.23
2019-05-16T21:31:22.383Z,14.00
2019-05-16T21:33:53.936Z,12.53
2019-05-16T21:36:27.508Z,12.70
2019-05-16T21:38:59.936Z,11.40
2019-05-16T21:41:30.672Z,11.57
2019-05-16T21:44:01.961Z,10.47
2019-05-16T21:46:33.016Z,10.80
2019-05-16T21:49:04.744Z,10.80
2019-05-16T21:51:37.436Z,9.90
2019-05-16T21:54:08.732Z,10.23
2019-05-16T21:56:39.838Z,10.17
2019-05-16T21:59:10.712Z,9.37
2019-05-16T22:01:42.844Z,10.00
2019-05-16T22:04:14.034Z,11.67
2019-05-16T22:06:47.069Z,11.93
2019-05-16T22:09:17.954Z,11.23
2019-05-16T22:11:49.049Z,10.87
2019-05-16T22:14:27.516Z,11.10
2019-05-16T22:16:58.245Z,11.80
2019-05-16T22:19:31.524Z,10.67
2019-05-16T22:22:02.722Z,10.57
2019-05-16T22:24:37.145Z,9.73
2019-05-16T22:27:08.266Z,9.00
2019-05-16T22:29:39.337Z,9.63
2019-05-16T22:32:12.059Z,9.23
2019-05-16T22:34:42.874Z,9.37
2019-05-16T22:37:14.094Z,8.50
2019-05-16T22:39:45.407Z,7.60
2019-05-16T22:42:17.605Z,6.70
2019-05-16T22:44:48.874Z,6.47
2019-05-16T22:47:19.878Z,6.77
2019-05-16T22:49:52.175Z,7.27
2019-05-16T22:52:23.243Z,8.63
2019-05-16T22:54:56.591Z,7.70
2019-05-16T22:57:27.213Z,9.57
2019-05-16T22:59:58.564Z,10.33
2019-05-16T23:02:29.527Z,9.97
2019-05-16T23:05:00.751Z,9.90
2019-05-16T23:07:31.820Z,9.00
2019-05-16T23:10:04.177Z,10.30
2019-05-16T23:12:37.110Z,10.77
2019-05-16T23:15:09.034Z,11.13
2019-05-16T23:17:39.730Z,9.57
2019-05-16T23:20:11.252Z,9.97
2019-05-16T23:22:42.226Z,10.10
2019-05-16T23:25:13.190Z,10.57
2019-05-16T23:27:44.033Z,10.17
2019-05-16T23:30:16.743Z,10.73
2019-05-16T23:32:48.130Z,10.60
2019-05-16T23:35:18.983Z,9.77
2019-05-16T23:37:50.168Z,12.00
2019-05-16T23:40:21.009Z,11.30
2019-05-16T23:42:51.960Z,9.23
2019-05-16T23:45:22.794Z,9.70
2019-05-16T23:47:53.492Z,10.43
2019-05-16T23:50:24.377Z,11.30
2019-05-16T23:52:56.311Z,11.70
2019-05-16T23:55:27.821Z,11.77
2019-05-16T23:57:58.863Z,11.60
